Pagina principale
METAR-TAF:

METAR-TAF

Aeroporti :

Aeroporto di Rimini-Miramare

Rimini, Italia

latitudine: 44-02N, longitudine: 012-37E, altezza: 12 m

Osservazione

Il bollettino è stato emesso 20 minuti fa, alle 23:50 UTC
Vento 2 kt da direzioni variabili
Temperature 16°C
Umidità 88%
Pressione 1014 hPa
Visibilità 10 km o più

METAR: LIPR 272350Z AUTO VRB02KT 9999 NCD 16/14 Q1014

Ora: 02:10 (00:10 UTC)

Previsione

Il bollettino è stato emesso 1 ora e 10 minuti fa, alle 23:00 UTC
Previsione valida dal 28 alle 00 UTC al 28 alle 24 UTC
Vento 5 kt da direzioni variabili
Visibilità 10 km o più
Poco nuvoloso ad un'altezza di 4500 ft
Temporaneamente
dal 28 alle 15 UTC al 28 alle 18 UTC
Visibilità: 4000 m
temporale, pioggia,

TAF: LIPR 272300Z 2800/2824 VRB05KT 9999 FEW045 TEMPO 2815/2818 4000 TSRA

Osservazioni e previsioni meteorologiche di più di 4000 aeroporti (messaggi METAR e TAF).

Le stazioni disponibili sono rappresentate dai dischi gialli e rossi sulla carta.

Puntare il mouse per vedere il nome della stazione.

Clicca sopra per visualizzare le osservazioni e previsioni meteorologiche.

Per cambiare la mappa : fare clic sui pulsanti verdi con una croce nera per ingrandire, il pulsante verde con un trattino per diminuire, o sulla freccia verde per le mappe adiacenti.


METAR-TAF: